Time;durP1;ratioP1;P1;durP2;ratioP2;P2;SDS_P1;SDS_P2;PMS_P1;PMS_P2;Temp;Humidity;BMP_temperature;BMP_pressure;BME280_temperature;BME280_humidity;BME280_pressure;Samples;Min_cycle;Max_cycle;Signal;HPM_P1;HPM_P2
2021/06/22 00:01:07;;;;;;;13.75;5.15;;;;;;;;;;1995760;67;20080;-76
2021/06/22 00:03:33;;;;;;;14.75;5.03;;;;;;;;;;1913209;75;20087;-76
2021/06/22 00:05:58;;;;;;;9.82;4.55;;;;;;;;;;1913261;67;20076;-76
2021/06/22 00:08:24;;;;;;;9.25;4.05;;;;;;;;;;1911092;75;20079;-75
2021/06/22 00:10:50;;;;;;;12.18;4.70;;;;;;;;;;1913545;75;20125;-75
2021/06/22 00:13:15;;;;;;;10.23;4.65;;;;;;;;;;1965455;67;20087;-75
2021/06/22 00:15:41;;;;;;;15.10;5.05;;;;;;;;;;1910864;75;20088;-75
2021/06/22 00:18:07;;;;;;;13.98;5.80;;;;;;;;;;1912765;67;20077;-75
2021/06/22 00:20:32;;;;;;;13.05;4.68;;;;;;;;;;1915611;67;20084;-76
2021/06/22 00:22:58;;;;;;;13.18;4.50;;;;;;;;;;1923917;67;20092;-77
2021/06/22 00:25:25;;;;;;;10.93;4.30;;;;;;;;;;1920719;67;20103;-77
2021/06/22 00:27:51;;;;;;;11.50;4.38;;;;;;;;;;1918486;67;20092;-75
2021/06/22 00:30:18;;;;;;;9.82;4.40;;;;;;;;;;2062472;67;20093;-76
2021/06/22 00:32:44;;;;;;;18.45;5.15;;;;;;;;;;1914893;67;20083;-76
2021/06/22 00:35:10;;;;;;;9.75;4.10;;;;;;;;;;2070086;67;20160;-76
2021/06/22 00:37:35;;;;;;;17.45;4.55;;;;;;;;;;1909948;67;20095;-75
2021/06/22 00:40:01;;;;;;;15.40;5.18;;;;;;;;;;1947548;67;20389;-75
2021/06/22 00:42:26;;;;;;;14.07;5.57;;;;;;;;;;1914615;67;20087;-76
2021/06/22 00:44:54;;;;;;;12.70;5.03;;;;;;;;;;1913616;75;20094;-76
2021/06/22 00:47:21;;;;;;;9.10;4.10;;;;;;;;;;1914969;67;20083;-74
2021/06/22 00:49:48;;;;;;;13.55;4.70;;;;;;;;;;1914190;67;20087;-76
2021/06/22 00:52:14;;;;;;;22.15;5.07;;;;;;;;;;1909648;75;20552;-76
2021/06/22 00:54:40;;;;;;;16.20;4.85;;;;;;;;;;1911610;67;20087;-75
2021/06/22 00:57:06;;;;;;;11.70;4.97;;;;;;;;;;1910796;67;20092;-76
2021/06/22 00:59:32;;;;;;;14.70;5.60;;;;;;;;;;2007922;67;20120;-76
2021/06/22 01:01:58;;;;;;;14.15;5.22;;;;;;;;;;1977480;67;20080;-75
2021/06/22 01:04:23;;;;;;;11.60;4.78;;;;;;;;;;1917201;67;20084;-75
2021/06/22 01:06:48;;;;;;;12.75;5.32;;;;;;;;;;1913558;75;20098;-76
2021/06/22 01:09:14;;;;;;;15.00;5.47;;;;;;;;;;1916336;67;20083;-75
2021/06/22 01:11:39;;;;;;;15.93;5.10;;;;;;;;;;1913176;67;20084;-75
2021/06/22 01:14:05;;;;;;;16.60;5.22;;;;;;;;;;1912409;67;20124;-75
2021/06/22 01:16:30;;;;;;;15.55;5.40;;;;;;;;;;1911646;67;20092;-75
2021/06/22 01:19:00;;;;;;;9.93;5.00;;;;;;;;;;1915311;67;20084;-77
2021/06/22 01:21:31;;;;;;;9.70;4.93;;;;;;;;;;1913345;75;20087;-75
2021/06/22 01:24:22;;;;;;;14.00;5.75;;;;;;;;;;1946414;67;20370;-76
2021/06/22 01:26:50;;;;;;;12.95;5.82;;;;;;;;;;1913638;67;20084;-76
2021/06/22 01:29:16;;;;;;;13.80;5.45;;;;;;;;;;1918168;67;20197;-75
2021/06/22 01:31:42;;;;;;;12.63;5.35;;;;;;;;;;1923208;67;20088;-76
2021/06/22 01:34:08;;;;;;;18.10;7.25;;;;;;;;;;1911924;67;20511;-75
2021/06/22 01:36:35;;;;;;;16.95;5.80;;;;;;;;;;1914134;67;20080;-74
2021/06/22 01:39:02;;;;;;;12.27;5.97;;;;;;;;;;1912676;67;20125;-75
2021/06/22 01:41:28;;;;;;;15.68;6.00;;;;;;;;;;1915501;67;20086;-75
2021/06/22 01:43:53;;;;;;;13.80;5.80;;;;;;;;;;1911940;67;20084;-75
2021/06/22 01:46:19;;;;;;;19.30;6.28;;;;;;;;;;1914410;67;20105;-75
2021/06/22 01:48:44;;;;;;;17.35;6.85;;;;;;;;;;1958569;67;20086;-75
2021/06/22 01:51:10;;;;;;;15.75;6.05;;;;;;;;;;1914665;67;20087;-73
2021/06/22 01:53:35;;;;;;;11.38;6.15;;;;;;;;;;1915743;67;20524;-75
2021/06/22 01:56:01;;;;;;;11.45;6.30;;;;;;;;;;1923253;67;20130;-75
2021/06/22 01:58:26;;;;;;;16.42;6.55;;;;;;;;;;1953057;67;20092;-76
2021/06/22 02:00:54;;;;;;;16.15;7.20;;;;;;;;;;1963671;67;20136;-76
2021/06/22 02:03:24;;;;;;;20.58;6.82;;;;;;;;;;1935425;67;20091;-76
2021/06/22 02:05:49;;;;;;;21.58;6.57;;;;;;;;;;1911546;67;20080;-73
2021/06/22 02:08:16;;;;;;;14.57;6.57;;;;;;;;;;1958572;67;20374;-75
2021/06/22 02:10:42;;;;;;;17.30;6.03;;;;;;;;;;1915098;67;20099;-75
2021/06/22 02:13:08;;;;;;;10.13;6.05;;;;;;;;;;1912477;67;20084;-74
2021/06/22 02:15:34;;;;;;;15.43;6.88;;;;;;;;;;1910435;75;20116;-75
2021/06/22 02:18:00;;;;;;;14.88;6.47;;;;;;;;;;1999029;67;20137;-76
2021/06/22 02:20:26;;;;;;;17.67;7.00;;;;;;;;;;1913415;75;20079;-75
2021/06/22 02:22:52;;;;;;;19.70;6.78;;;;;;;;;;1912595;75;20088;-75
2021/06/22 02:25:17;;;;;;;20.30;6.97;;;;;;;;;;1938289;67;20080;-75
2021/06/22 02:27:43;;;;;;;19.88;7.03;;;;;;;;;;1916196;67;20106;-75
2021/06/22 02:30:12;;;;;;;14.43;6.82;;;;;;;;;;1911196;67;20125;-75
2021/06/22 02:32:38;;;;;;;14.73;6.65;;;;;;;;;;1912797;67;20173;-75
2021/06/22 02:35:09;;;;;;;14.25;7.20;;;;;;;;;;1913241;75;20087;-76
2021/06/22 02:37:36;;;;;;;19.20;6.82;;;;;;;;;;1911153;75;20524;-75
2021/06/22 02:40:03;;;;;;;17.52;7.53;;;;;;;;;;1980225;67;20069;-76
2021/06/22 02:42:29;;;;;;;21.05;7.18;;;;;;;;;;1913673;67;20137;-75
2021/06/22 02:44:54;;;;;;;15.32;7.13;;;;;;;;;;1910707;75;20135;-75
2021/06/22 02:47:19;;;;;;;18.92;7.18;;;;;;;;;;1967687;67;20157;-76
2021/06/22 02:49:45;;;;;;;15.63;7.07;;;;;;;;;;1916744;67;20153;-75
2021/06/22 02:52:10;;;;;;;20.33;8.20;;;;;;;;;;1914108;75;20094;-74
2021/06/22 02:54:38;;;;;;;13.95;7.40;;;;;;;;;;1914485;67;20095;-76
2021/06/22 02:57:06;;;;;;;18.02;7.75;;;;;;;;;;1913867;67;20390;-75
2021/06/22 02:59:31;;;;;;;20.23;7.85;;;;;;;;;;1911061;75;20088;-75
2021/06/22 03:01:56;;;;;;;16.15;7.13;;;;;;;;;;1926929;67;20090;-76
2021/06/22 03:04:22;;;;;;;16.42;7.28;;;;;;;;;;1914362;67;20125;-77
2021/06/22 03:06:47;;;;;;;20.25;7.20;;;;;;;;;;1921064;67;20079;-77
2021/06/22 03:09:12;;;;;;;17.83;6.93;;;;;;;;;;1949285;67;20396;-74
2021/06/22 03:11:38;;;;;;;39.45;7.60;;;;;;;;;;1912593;67;20080;-74
2021/06/22 03:14:03;;;;;;;14.45;7.47;;;;;;;;;;1976414;67;20393;-75
2021/06/22 03:16:29;;;;;;;14.80;6.55;;;;;;;;;;1915824;67;20095;-75
2021/06/22 03:18:54;;;;;;;15.10;7.53;;;;;;;;;;1912639;75;20131;-75
2021/06/22 03:21:19;;;;;;;19.02;7.78;;;;;;;;;;1912988;75;20140;-75
2021/06/22 03:23:45;;;;;;;14.75;7.40;;;;;;;;;;1962482;67;20075;-75
2021/06/22 03:26:12;;;;;;;20.67;8.30;;;;;;;;;;1924362;67;20094;-75
2021/06/22 03:28:38;;;;;;;20.27;8.23;;;;;;;;;;1951202;67;20075;-76
2021/06/22 03:31:03;;;;;;;17.63;8.02;;;;;;;;;;1921315;67;20088;-75
2021/06/22 03:33:29;;;;;;;16.92;7.40;;;;;;;;;;1925778;67;20091;-75
2021/06/22 03:35:54;;;;;;;18.15;8.20;;;;;;;;;;1914676;67;20145;-75
2021/06/22 03:38:19;;;;;;;19.05;7.43;;;;;;;;;;1915637;67;20091;-74
2021/06/22 03:40:45;;;;;;;27.17;8.30;;;;;;;;;;1913686;67;20080;-74
2021/06/22 03:43:10;;;;;;;17.13;8.18;;;;;;;;;;1911895;75;20381;-75
2021/06/22 03:45:35;;;;;;;14.55;7.32;;;;;;;;;;1912037;75;20084;-75
2021/06/22 03:48:01;;;;;;;13.60;7.60;;;;;;;;;;1915804;67;20083;-74
2021/06/22 03:50:26;;;;;;;17.00;6.82;;;;;;;;;;1928381;52;20094;-72
2021/06/22 03:52:51;;;;;;;20.90;8.60;;;;;;;;;;1912929;67;20083;-76
2021/06/22 03:55:26;;;;;;;12.25;6.25;;;;;;;;;;1917744;67;20083;-75
2021/06/22 03:57:53;;;;;;;15.48;7.75;;;;;;;;;;1912504;75;20095;-76
2021/06/22 04:00:20;;;;;;;20.70;7.28;;;;;;;;;;1978758;67;20073;-75
2021/06/22 04:02:46;;;;;;;13.73;7.75;;;;;;;;;;1937872;67;20485;-75
2021/06/22 04:05:11;;;;;;;20.40;7.13;;;;;;;;;;1913496;67;20099;-74
2021/06/22 04:07:36;;;;;;;19.35;7.82;;;;;;;;;;1987401;67;20392;-74
2021/06/22 04:10:02;;;;;;;19.33;7.30;;;;;;;;;;1911958;67;20080;-75
2021/06/22 04:12:28;;;;;;;16.88;7.22;;;;;;;;;;1955282;67;20080;-77
2021/06/22 04:14:53;;;;;;;20.25;7.40;;;;;;;;;;1911968;67;20132;-74
2021/06/22 04:17:18;;;;;;;18.77;7.63;;;;;;;;;;1986189;67;20433;-76
2021/06/22 04:19:44;;;;;;;23.55;9.07;;;;;;;;;;1948095;67;20123;-75
2021/06/22 04:22:09;;;;;;;14.63;7.82;;;;;;;;;;1912854;75;20076;-75
2021/06/22 04:24:35;;;;;;;27.65;8.10;;;;;;;;;;1915903;67;20524;-75
2021/06/22 04:27:00;;;;;;;16.25;7.65;;;;;;;;;;1912955;67;20087;-75
2021/06/22 04:29:25;;;;;;;23.88;9.90;;;;;;;;;;1915440;67;20093;-74
2021/06/22 04:31:51;;;;;;;19.20;8.00;;;;;;;;;;2012984;67;20094;-75
2021/06/22 04:34:16;;;;;;;11.25;6.93;;;;;;;;;;2044492;67;20383;-75
2021/06/22 04:36:42;;;;;;;17.40;8.02;;;;;;;;;;1910116;75;20396;-76
2021/06/22 04:39:07;;;;;;;25.42;7.95;;;;;;;;;;1924186;67;20080;-75
2021/06/22 04:41:33;;;;;;;17.40;7.47;;;;;;;;;;1910302;75;20080;-75
2021/06/22 04:43:58;;;;;;;22.58;8.65;;;;;;;;;;1912338;67;20196;-74
2021/06/22 04:46:24;;;;;;;15.35;7.40;;;;;;;;;;1913650;67;20514;-75
2021/06/22 04:48:49;;;;;;;13.38;7.70;;;;;;;;;;1936788;67;20370;-76
2021/06/22 04:51:15;;;;;;;15.60;8.05;;;;;;;;;;1913744;67;20088;-75
2021/06/22 04:53:40;;;;;;;22.77;7.53;;;;;;;;;;1948629;67;20065;-76
2021/06/22 04:56:06;;;;;;;19.90;7.15;;;;;;;;;;1911362;67;20393;-75
2021/06/22 04:58:31;;;;;;;16.20;7.18;;;;;;;;;;1973368;67;20385;-75
2021/06/22 05:01:00;;;;;;;27.77;8.15;;;;;;;;;;1913756;67;20091;-75
2021/06/22 05:03:26;;;;;;;17.52;6.88;;;;;;;;;;1911931;67;20091;-75
2021/06/22 05:05:51;;;;;;;19.25;7.30;;;;;;;;;;1912758;75;20080;-76
2021/06/22 05:08:16;;;;;;;18.95;7.10;;;;;;;;;;2022645;67;20496;-75
2021/06/22 05:10:42;;;;;;;24.60;7.43;;;;;;;;;;1912843;75;20152;-75
2021/06/22 05:13:07;;;;;;;14.15;6.53;;;;;;;;;;1917600;67;20165;-76
2021/06/22 05:15:32;;;;;;;16.48;7.53;;;;;;;;;;1915334;67;20505;-69
2021/06/22 05:17:58;;;;;;;20.42;6.85;;;;;;;;;;1913464;67;20481;-71
2021/06/22 05:20:23;;;;;;;16.40;6.45;;;;;;;;;;1912505;75;20558;-71
2021/06/22 05:22:48;;;;;;;13.70;6.07;;;;;;;;;;1964625;67;20087;-72
2021/06/22 05:25:14;;;;;;;23.05;6.82;;;;;;;;;;1944517;67;20084;-69
2021/06/22 05:27:40;;;;;;;15.80;6.70;;;;;;;;;;1930398;67;20150;-70
2021/06/22 05:30:06;;;;;;;14.23;5.97;;;;;;;;;;1909164;75;20076;-69
2021/06/22 05:32:31;;;;;;;18.17;6.28;;;;;;;;;;2020564;67;20524;-70
2021/06/22 05:34:56;;;;;;;17.80;6.57;;;;;;;;;;1909343;75;20505;-71
2021/06/22 05:37:23;;;;;;;17.80;6.40;;;;;;;;;;1913336;67;20084;-69
2021/06/22 05:39:49;;;;;;;16.00;5.85;;;;;;;;;;1912212;67;20076;-69
2021/06/22 05:42:15;;;;;;;17.65;5.80;;;;;;;;;;1968090;67;20110;-70
2021/06/22 05:44:40;;;;;;;17.27;6.00;;;;;;;;;;2019417;67;20117;-69
2021/06/22 05:47:05;;;;;;;22.00;5.82;;;;;;;;;;1915598;67;20088;-70
2021/06/22 05:49:31;;;;;;;16.45;6.25;;;;;;;;;;1913084;67;20518;-69
2021/06/22 05:51:56;;;;;;;14.95;5.97;;;;;;;;;;1943362;67;20205;-70
2021/06/22 05:54:21;;;;;;;18.75;7.25;;;;;;;;;;1920625;67;20131;-71
2021/06/22 05:56:47;;;;;;;17.65;5.70;;;;;;;;;;1930489;67;20084;-70
2021/06/22 05:59:12;;;;;;;25.70;6.95;;;;;;;;;;1942825;67;20135;-69
2021/06/22 06:01:38;;;;;;;11.63;6.07;;;;;;;;;;2034336;67;20085;-70
2021/06/22 06:04:04;;;;;;;13.40;6.63;;;;;;;;;;1911143;67;20088;-70
2021/06/22 06:06:29;;;;;;;10.98;5.70;;;;;;;;;;1909232;67;20476;-70
2021/06/22 06:08:54;;;;;;;21.92;6.30;;;;;;;;;;1924388;67;20143;-70
2021/06/22 06:11:20;;;;;;;19.27;4.88;;;;;;;;;;1909325;67;20088;-70
2021/06/22 06:13:45;;;;;;;10.50;4.88;;;;;;;;;;2047811;67;20197;-69
2021/06/22 06:16:10;;;;;;;16.00;5.40;;;;;;;;;;1916451;67;20098;-69
2021/06/22 06:18:36;;;;;;;18.50;5.28;;;;;;;;;;1977168;67;20115;-70
2021/06/22 06:21:01;;;;;;;14.57;5.28;;;;;;;;;;1914098;67;20398;-69
2021/06/22 06:23:40;;;;;;;12.13;4.75;;;;;;;;;;1938047;67;20178;-69
2021/06/22 06:26:07;;;;;;;19.73;5.10;;;;;;;;;;1914403;67;20389;-69
2021/06/22 06:28:36;;;;;;;16.30;5.50;;;;;;;;;;1916468;67;20088;-69
2021/06/22 06:31:02;;;;;;;15.70;5.25;;;;;;;;;;1939679;67;20083;-69
2021/06/22 06:33:28;;;;;;;15.60;4.53;;;;;;;;;;1960778;67;20139;-69
2021/06/22 06:35:54;;;;;;;20.45;5.47;;;;;;;;;;1933594;67;20417;-69
2021/06/22 06:38:20;;;;;;;18.80;5.10;;;;;;;;;;1910843;75;20091;-69
2021/06/22 06:40:45;;;;;;;15.30;4.78;;;;;;;;;;2012138;67;20079;-72
2021/06/22 06:43:11;;;;;;;12.13;5.35;;;;;;;;;;1914005;67;20088;-69
2021/06/22 06:45:36;;;;;;;23.60;4.85;;;;;;;;;;1953304;67;20080;-69
2021/06/22 06:48:02;;;;;;;21.55;5.97;;;;;;;;;;1915765;67;20107;-69
2021/06/22 06:50:27;;;;;;;12.55;5.30;;;;;;;;;;1972957;67;20116;-70
2021/06/22 06:52:52;;;;;;;13.77;4.85;;;;;;;;;;1909842;75;20095;-70
2021/06/22 06:55:37;;;;;;;14.45;5.07;;;;;;;;;;1909765;67;20084;-70
2021/06/22 06:58:04;;;;;;;15.30;4.60;;;;;;;;;;1916734;67;20086;-69
2021/06/22 07:00:31;;;;;;;20.42;5.03;;;;;;;;;;1912241;75;20072;-70
2021/06/22 07:02:57;;;;;;;8.27;4.30;;;;;;;;;;1993922;67;20137;-70
2021/06/22 07:05:23;;;;;;;14.25;4.97;;;;;;;;;;1912586;67;20080;-69
2021/06/22 07:07:48;;;;;;;9.32;4.43;;;;;;;;;;1915723;67;20084;-69
2021/06/22 07:10:14;;;;;;;20.02;5.20;;;;;;;;;;1909385;67;20086;-70
2021/06/22 07:12:40;;;;;;;17.98;5.53;;;;;;;;;;1922985;67;20084;-68
2021/06/22 07:15:07;;;;;;;10.98;4.60;;;;;;;;;;1909531;75;20091;-69
2021/06/22 07:17:32;;;;;;;17.50;5.57;;;;;;;;;;1912714;67;20547;-69
2021/06/22 07:19:58;;;;;;;10.90;4.72;;;;;;;;;;1912597;67;20080;-69
2021/06/22 07:22:24;;;;;;;12.27;4.32;;;;;;;;;;2024163;67;20086;-69
2021/06/22 07:24:50;;;;;;;9.52;4.00;;;;;;;;;;1914866;67;20140;-69
2021/06/22 07:27:16;;;;;;;17.40;5.28;;;;;;;;;;2009332;67;20072;-68
2021/06/22 07:29:41;;;;;;;18.00;4.30;;;;;;;;;;2059099;67;20131;-69
2021/06/22 07:32:07;;;;;;;15.55;3.95;;;;;;;;;;1917652;67;20397;-68
2021/06/22 07:34:34;;;;;;;14.63;4.40;;;;;;;;;;1913545;67;20083;-69
2021/06/22 07:37:00;;;;;;;12.05;4.03;;;;;;;;;;1988686;67;20142;-68
2021/06/22 07:39:25;;;;;;;13.00;4.32;;;;;;;;;;1955715;67;20435;-69
2021/06/22 07:41:51;;;;;;;14.57;4.57;;;;;;;;;;1912825;75;20140;-70
2021/06/22 07:44:16;;;;;;;12.88;4.68;;;;;;;;;;1914407;67;20076;-69
2021/06/22 07:46:41;;;;;;;14.75;5.03;;;;;;;;;;1961251;67;20135;-69
2021/06/22 07:49:07;;;;;;;13.93;4.68;;;;;;;;;;1910583;67;20406;-69
2021/06/22 07:51:32;;;;;;;12.73;4.50;;;;;;;;;;1998596;67;20367;-69
2021/06/22 07:53:58;;;;;;;16.63;4.88;;;;;;;;;;1910899;67;20099;-69
2021/06/22 07:56:24;;;;;;;10.27;5.13;;;;;;;;;;1910698;67;20137;-70
2021/06/22 07:58:50;;;;;;;17.27;4.93;;;;;;;;;;1911157;67;20095;-70
2021/06/22 08:01:17;;;;;;;24.48;6.20;;;;;;;;;;1983699;67;20084;-69
2021/06/22 08:03:42;;;;;;;20.25;5.28;;;;;;;;;;1913870;67;20106;-69
2021/06/22 08:06:08;;;;;;;16.48;5.45;;;;;;;;;;1924389;67;20196;-70
2021/06/22 08:08:33;;;;;;;15.23;5.32;;;;;;;;;;2020659;67;20088;-69
2021/06/22 08:10:58;;;;;;;18.88;5.75;;;;;;;;;;1910763;67;20091;-69
2021/06/22 08:13:24;;;;;;;13.13;5.78;;;;;;;;;;1911205;67;20396;-70
2021/06/22 08:15:50;;;;;;;14.25;6.55;;;;;;;;;;1909285;67;20076;-69
2021/06/22 08:18:16;;;;;;;16.38;6.40;;;;;;;;;;1916231;67;20088;-68
2021/06/22 08:20:42;;;;;;;20.48;7.03;;;;;;;;;;2035639;67;20091;-70
2021/06/22 08:23:08;;;;;;;18.20;6.50;;;;;;;;;;1911360;67;20088;-70
2021/06/22 08:25:34;;;;;;;17.33;6.72;;;;;;;;;;1939310;67;20136;-70
2021/06/22 08:28:00;;;;;;;17.83;6.72;;;;;;;;;;1920427;67;20080;-69
2021/06/22 08:30:26;;;;;;;19.17;7.22;;;;;;;;;;1946712;67;20088;-69
2021/06/22 08:32:52;;;;;;;13.02;6.90;;;;;;;;;;1979008;67;20451;-71
2021/06/22 08:35:18;;;;;;;14.88;7.50;;;;;;;;;;2044613;67;20497;-69
2021/06/22 08:37:44;;;;;;;19.17;8.00;;;;;;;;;;1998601;67;20086;-69
2021/06/22 08:40:12;;;;;;;19.20;7.70;;;;;;;;;;1912476;75;20087;-69
2021/06/22 08:42:40;;;;;;;18.65;8.82;;;;;;;;;;1912235;75;20135;-70
2021/06/22 08:45:08;;;;;;;19.08;9.18;;;;;;;;;;1953692;67;20540;-69
2021/06/22 08:47:33;;;;;;;21.38;8.70;;;;;;;;;;1916159;67;20520;-70
2021/06/22 08:49:58;;;;;;;19.00;9.38;;;;;;;;;;2043372;67;20127;-70
2021/06/22 08:52:26;;;;;;;24.20;8.88;;;;;;;;;;1912707;75;20083;-70
2021/06/22 08:54:53;;;;;;;16.02;8.80;;;;;;;;;;1909560;75;20441;-69
2021/06/22 08:57:20;;;;;;;20.45;8.90;;;;;;;;;;1912651;67;20095;-70
2021/06/22 08:59:46;;;;;;;19.67;8.75;;;;;;;;;;1915645;67;20083;-71
2021/06/22 09:02:12;;;;;;;19.70;9.23;;;;;;;;;;1913397;67;20100;-70
2021/06/22 09:04:38;;;;;;;18.50;9.60;;;;;;;;;;1915034;67;20083;-71
2021/06/22 09:07:03;;;;;;;24.33;9.50;;;;;;;;;;1944624;67;20150;-71
2021/06/22 09:09:42;;;;;;;15.60;9.73;;;;;;;;;;1910141;67;20084;-71
2021/06/22 09:12:09;;;;;;;23.17;9.50;;;;;;;;;;1913857;67;20084;-71
2021/06/22 09:14:37;;;;;;;31.08;8.70;;;;;;;;;;1919268;67;20087;-71
2021/06/22 09:17:03;;;;;;;17.33;8.88;;;;;;;;;;1915092;67;20084;-71
2021/06/22 09:19:30;;;;;;;16.67;8.95;;;;;;;;;;1912223;67;20082;-71
2021/06/22 09:21:56;;;;;;;19.33;8.75;;;;;;;;;;1910548;67;20095;-70
2021/06/22 09:24:26;;;;;;;22.85;10.05;;;;;;;;;;1910182;67;20096;-71
2021/06/22 09:26:52;;;;;;;23.02;9.52;;;;;;;;;;1925730;67;20091;-71
2021/06/22 09:29:22;;;;;;;19.70;9.57;;;;;;;;;;1930677;67;20097;-71
2021/06/22 09:31:58;;;;;;;18.83;9.93;;;;;;;;;;1912132;67;20133;-71
2021/06/22 09:34:25;;;;;;;21.27;10.25;;;;;;;;;;2028721;67;20504;-71
2021/06/22 09:36:58;;;;;;;14.98;10.25;;;;;;;;;;1911947;67;20136;-71
2021/06/22 09:39:26;;;;;;;27.20;10.70;;;;;;;;;;1927223;67;20110;-70
2021/06/22 09:41:52;;;;;;;26.52;10.68;;;;;;;;;;1982741;67;20076;-71
2021/06/22 09:44:23;;;;;;;19.23;10.27;;;;;;;;;;1913045;67;20080;-71
2021/06/22 09:47:11;;;;;;;18.10;10.15;;;;;;;;;;1923103;67;20084;-71
2021/06/22 09:49:37;;;;;;;19.92;11.13;;;;;;;;;;1912835;67;20088;-71
2021/06/22 09:52:06;;;;;;;22.10;10.90;;;;;;;;;;1911717;67;20095;-70
2021/06/22 09:54:33;;;;;;;22.38;11.70;;;;;;;;;;1911854;75;20084;-71
2021/06/22 09:57:11;;;;;;;19.77;10.27;;;;;;;;;;1912243;75;20400;-71
2021/06/22 09:59:49;;;;;;;19.42;10.27;;;;;;;;;;1971034;67;20133;-71
2021/06/22 10:02:15;;;;;;;17.08;9.75;;;;;;;;;;1943414;67;20138;-71
2021/06/22 10:04:45;;;;;;;26.33;10.32;;;;;;;;;;1910681;67;20083;-71
2021/06/22 10:07:12;;;;;;;20.58;10.60;;;;;;;;;;1908809;75;20084;-71
2021/06/22 10:09:38;;;;;;;19.83;10.40;;;;;;;;;;1910477;67;20524;-71
2021/06/22 10:12:12;;;;;;;16.67;10.63;;;;;;;;;;1911753;75;20080;-71
2021/06/22 10:14:46;;;;;;;20.92;11.52;;;;;;;;;;1937116;67;20114;-71
2021/06/22 10:17:18;;;;;;;18.20;10.77;;;;;;;;;;1911563;75;20091;-71
2021/06/22 10:19:45;;;;;;;16.15;11.35;;;;;;;;;;1918386;67;20092;-71
2021/06/22 10:22:12;;;;;;;17.35;11.13;;;;;;;;;;1909037;75;20084;-71
2021/06/22 10:24:43;;;;;;;17.55;11.07;;;;;;;;;;2000058;67;20080;-71
2021/06/22 10:27:09;;;;;;;19.75;10.50;;;;;;;;;;1931200;67;20137;-71
2021/06/22 10:29:35;;;;;;;20.23;11.65;;;;;;;;;;1949776;67;20076;-71
2021/06/22 10:32:01;;;;;;;17.42;11.00;;;;;;;;;;1912178;75;20094;-71
2021/06/22 10:34:27;;;;;;;16.25;11.95;;;;;;;;;;2038480;67;20079;-71
2021/06/22 10:37:16;;;;;;;19.77;12.10;;;;;;;;;;1914323;67;20086;-71
2021/06/22 10:39:52;;;;;;;18.38;11.68;;;;;;;;;;2030855;67;20223;-71
2021/06/22 10:42:18;;;;;;;20.13;11.27;;;;;;;;;;1911863;67;20091;-70
2021/06/22 10:44:58;;;;;;;16.88;11.25;;;;;;;;;;1911674;75;20080;-71
2021/06/22 10:47:27;;;;;;;18.88;11.27;;;;;;;;;;2000392;67;20076;-71
2021/06/22 10:50:08;;;;;;;21.63;11.38;;;;;;;;;;1909112;75;20095;-71
2021/06/22 10:52:46;;;;;;;15.48;11.45;;;;;;;;;;1914438;67;20178;-71
2021/06/22 10:55:23;;;;;;;14.60;10.70;;;;;;;;;;1909091;75;20149;-70
2021/06/22 10:58:04;;;;;;;25.48;11.75;;;;;;;;;;1962219;67;20531;-71
2021/06/22 11:00:39;;;;;;;23.30;12.63;;;;;;;;;;1993481;67;20123;-72
2021/06/22 11:03:22;;;;;;;19.08;12.10;;;;;;;;;;1989221;67;20492;-70
2021/06/22 11:05:48;;;;;;;20.75;12.73;;;;;;;;;;1913785;67;20393;-71
2021/06/22 11:08:16;;;;;;;21.63;13.32;;;;;;;;;;1909340;75;20107;-71
2021/06/22 11:10:47;;;;;;;17.42;13.23;;;;;;;;;;2005011;67;20173;-71
2021/06/22 11:13:32;;;;;;;19.75;13.25;;;;;;;;;;1912313;67;20103;-71
2021/06/22 11:15:59;;;;;;;18.42;13.20;;;;;;;;;;1939373;67;20078;-70
2021/06/22 11:18:24;;;;;;;22.85;13.00;;;;;;;;;;1909661;75;20080;-70
2021/06/22 11:20:53;;;;;;;17.90;12.77;;;;;;;;;;1914021;67;20083;-70
2021/06/22 11:23:21;;;;;;;16.98;12.75;;;;;;;;;;1915308;67;20096;-70
2021/06/22 11:25:48;;;;;;;21.33;12.70;;;;;;;;;;1928379;67;20088;-71
2021/06/22 11:28:14;;;;;;;16.63;12.23;;;;;;;;;;1918488;67;20424;-70
2021/06/22 11:30:47;;;;;;;19.23;11.40;;;;;;;;;;1912566;75;20431;-71
2021/06/22 11:33:31;;;;;;;;;;;;;;;;;;1913660;67;20536;-70
2021/06/22 11:36:15;;;;;;;12.80;11.05;;;;;;;;;;1954190;67;19952;-70
2021/06/22 11:38:41;;;;;;;15.88;10.95;;;;;;;;;;1913245;67;20136;-71
2021/06/22 11:41:11;;;;;;;15.65;11.63;;;;;;;;;;1913247;67;20095;-71
2021/06/22 11:43:36;;;;;;;15.80;10.77;;;;;;;;;;1927734;67;20088;-70
2021/06/22 11:46:38;;;;;;;16.85;11.75;;;;;;;;;;1939746;67;20088;-70
2021/06/22 11:49:04;;;;;;;14.27;11.07;;;;;;;;;;1904775;75;20084;-70
2021/06/22 11:51:48;;;;;;;13.73;10.77;;;;;;;;;;1969592;63;20614;-72
2021/06/22 11:54:15;;;;;;;11.32;10.13;;;;;;;;;;1912219;75;20102;-70
2021/06/22 11:56:43;;;;;;;14.52;10.82;;;;;;;;;;1976647;67;20076;-70
2021/06/22 11:59:08;;;;;;;18.40;12.07;;;;;;;;;;1909500;75;20110;-69
2021/06/22 12:01:34;;;;;;;13.73;9.73;;;;;;;;;;1956425;67;20089;-70
2021/06/22 12:04:01;;;;;;;15.13;10.38;;;;;;;;;;1910780;67;20099;-70
2021/06/22 12:06:27;;;;;;;21.67;9.75;;;;;;;;;;2009793;67;20067;-69
2021/06/22 12:08:52;;;;;;;15.38;8.25;;;;;;;;;;1912106;75;20107;-71
2021/06/22 12:11:28;;;;;;;13.00;8.70;;;;;;;;;;1912378;75;20389;-70
2021/06/22 12:13:53;;;;;;;14.30;8.05;;;;;;;;;;1912224;75;20421;-71
2021/06/22 12:16:28;;;;;;;17.80;8.57;;;;;;;;;;1914809;67;20084;-70
2021/06/22 12:19:02;;;;;;;12.13;8.70;;;;;;;;;;1911670;67;20109;-70
2021/06/22 12:21:29;;;;;;;16.15;8.05;;;;;;;;;;1912704;67;20091;-70
2021/06/22 12:24:22;;;;;;;13.27;7.53;;;;;;;;;;1969656;67;20128;-70
2021/06/22 12:26:51;;;;;;;12.85;6.30;;;;;;;;;;1912095;75;20099;-71
2021/06/22 12:29:20;;;;;;;15.07;6.50;;;;;;;;;;1916550;67;20084;-71
2021/06/22 12:31:57;;;;;;;11.48;6.35;;;;;;;;;;1913773;67;20080;-71
2021/06/22 12:34:24;;;;;;;11.90;5.88;;;;;;;;;;1934516;67;20076;-71
2021/06/22 12:36:50;;;;;;;9.55;5.30;;;;;;;;;;1912341;75;20083;-71
2021/06/22 12:39:16;;;;;;;10.45;5.03;;;;;;;;;;1914120;67;20091;-70
2021/06/22 12:41:43;;;;;;;9.27;5.57;;;;;;;;;;1912474;75;20088;-70
2021/06/22 12:44:09;;;;;;;10.30;5.70;;;;;;;;;;1911825;68;20087;-69
2021/06/22 12:46:37;;;;;;;7.78;5.57;;;;;;;;;;1915950;67;20084;-69
2021/06/22 12:49:09;;;;;;;10.73;5.88;;;;;;;;;;1911557;67;20446;-71
2021/06/22 12:51:38;;;;;;;11.23;5.18;;;;;;;;;;1934350;67;20140;-71
2021/06/22 12:54:07;;;;;;;8.98;4.85;;;;;;;;;;2033552;67;20080;-70
2021/06/22 12:56:55;;;;;;;10.75;5.28;;;;;;;;;;1940245;67;20087;-70
2021/06/22 12:59:22;;;;;;;10.48;5.30;;;;;;;;;;2050334;67;20485;-69
2021/06/22 13:01:49;;;;;;;9.20;4.88;;;;;;;;;;1957233;67;20076;-69
2021/06/22 13:04:17;;;;;;;7.55;4.72;;;;;;;;;;1911983;75;20384;-69
2021/06/22 13:06:51;;;;;;;9.10;4.38;;;;;;;;;;1916781;67;20170;-70
2021/06/22 13:09:22;;;;;;;7.57;5.20;;;;;;;;;;1967140;67;20411;-69
2021/06/22 13:11:56;;;;;;;10.02;4.63;;;;;;;;;;1912217;75;20080;-69
2021/06/22 13:14:24;;;;;;;14.48;4.75;;;;;;;;;;1912219;67;20114;-72
2021/06/22 13:17:04;;;;;;;10.38;4.40;;;;;;;;;;1918668;67;20084;-70
2021/06/22 13:19:32;;;;;;;10.27;4.63;;;;;;;;;;1910131;75;20104;-70
2021/06/22 13:22:03;;;;;;;8.35;4.45;;;;;;;;;;1909186;75;20146;-71
2021/06/22 13:24:31;;;;;;;9.38;4.35;;;;;;;;;;1977293;67;20087;-70
2021/06/22 13:27:03;;;;;;;11.45;4.00;;;;;;;;;;1911757;75;20084;-70
2021/06/22 13:29:50;;;;;;;7.30;3.97;;;;;;;;;;1917034;67;20087;-70
2021/06/22 13:32:32;;;;;;;8.18;4.18;;;;;;;;;;1909444;67;20095;-70
2021/06/22 13:34:58;;;;;;;8.20;3.97;;;;;;;;;;1910589;67;20103;-70
2021/06/22 13:37:24;;;;;;;9.38;4.13;;;;;;;;;;1915682;67;20087;-71
2021/06/22 13:40:14;;;;;;;13.18;4.43;;;;;;;;;;1911818;75;20103;-70
2021/06/22 13:42:39;;;;;;;11.32;5.03;;;;;;;;;;1912052;75;20396;-70
2021/06/22 13:45:13;;;;;;;11.48;4.00;;;;;;;;;;1911938;75;20080;-70
2021/06/22 13:47:41;;;;;;;7.38;4.50;;;;;;;;;;2004492;67;20075;-72
2021/06/22 13:50:18;;;;;;;8.80;4.20;;;;;;;;;;2044143;67;20098;-70
2021/06/22 13:52:54;;;;;;;9.85;3.97;;;;;;;;;;1930438;67;20082;-70
2021/06/22 13:55:31;;;;;;;10.30;4.43;;;;;;;;;;1911133;75;20127;-70
2021/06/22 13:58:05;;;;;;;7.85;4.40;;;;;;;;;;2001803;67;20187;-70
2021/06/22 14:00:33;;;;;;;5.82;3.83;;;;;;;;;;1909211;75;20091;-71
2021/06/22 14:02:58;;;;;;;7.45;4.10;;;;;;;;;;1914365;67;20088;-69
2021/06/22 14:05:29;;;;;;;12.40;5.03;;;;;;;;;;2056096;67;20142;-71
2021/06/22 14:07:54;;;;;;;13.10;4.65;;;;;;;;;;1965670;67;20086;-72
2021/06/22 14:10:20;;;;;;;11.52;5.55;;;;;;;;;;1911974;75;20397;-71
2021/06/22 14:12:45;;;;;;;6.97;4.78;;;;;;;;;;1911745;75;20086;-70
2021/06/22 14:15:12;;;;;;;16.23;4.90;;;;;;;;;;1911911;75;20429;-70
2021/06/22 14:17:37;;;;;;;15.05;9.00;;;;;;;;;;1945552;67;20095;-71
2021/06/22 14:20:06;;;;;;;11.85;5.60;;;;;;;;;;1949213;67;20131;-73
2021/06/22 14:22:31;;;;;;;5.72;3.85;;;;;;;;;;2073076;67;20079;-70
2021/06/22 14:24:56;;;;;;;7.47;3.90;;;;;;;;;;1910632;67;20095;-70
2021/06/22 14:27:22;;;;;;;13.25;4.30;;;;;;;;;;1912246;75;20482;-71
2021/06/22 14:29:47;;;;;;;10.35;3.80;;;;;;;;;;1947127;67;20565;-71
2021/06/22 14:32:12;;;;;;;10.48;4.75;;;;;;;;;;1962698;67;20092;-71